KCCY/CCY METAR and TAF weather

Enter ICAO airport designator
Station Type Date Time Source
KCCY METAR 2021/07/27 22:35 UTC NOAA

KCCY 272235Z AUTO 22009G14KT 10SM CLR 32/24 A2998 RMK AO2


Station Type Date Time Source
KCCY Decoded METAR 2021/07/27 22:35 UTC NOAA

Charles City, IA, United States (KCCY) 43-04N 092-37W
Jul 27, 2021 - 06:35 PM EDT / 2021.07.27 2235 UTC
Wind: from the SW (220 degrees) at 10 MPH (9 KT) gusting to 16 MPH (14 KT):0
Visibility: 10 mile(s):0
Sky conditions: clear
Temperature: 89 F (32 C)
Heat index: 98.4 F (36.9 C):1
Dew Point: 75 F (24 C)
Relative Humidity: 62%
Pressure (altimeter): 29.98 in. Hg (1015 hPa)
ob: KCCY 272235Z AUTO 22009G14KT 10SM CLR 32/24 A2998 RMK AO2
cycle: 22

Station Type Date Time Source
KCCY TAF UTC NOAA

Error!

Example: see airport list